Time;durP1;ratioP1;P1;durP2;ratioP2;P2;SDS_P1;SDS_P2;PMS_P1;PMS_P2;Temp;Humidity;BMP_temperature;BMP_pressure;BME280_temperature;BME280_humidity;BME280_pressure;Samples;Min_cycle;Max_cycle;Signal;HPM_P1;HPM_P2
2023/07/28 00:01:14;;;;;;;5.78;1.80;;;;;;;;;;5037275;28;20021;-26
2023/07/28 00:03:40;;;;;;;5.05;1.35;;;;;;;;;;5037023;28;20103;-24
2023/07/28 00:06:06;;;;;;;6.85;1.70;;;;;;;;;;5037495;28;20091;-26
2023/07/28 00:08:32;;;;;;;3.63;1.77;;;;;;;;;;5037443;28;20098;-24
2023/07/28 00:10:58;;;;;;;3.08;1.45;;;;;;;;;;5037108;28;20026;-23
2023/07/28 00:13:25;;;;;;;4.40;1.67;;;;;;;;;;5037126;28;20136;-24
2023/07/28 00:15:51;;;;;;;7.88;3.03;;;;;;;;;;5037318;28;20029;-25
2023/07/28 00:18:18;;;;;;;7.03;2.13;;;;;;;;;;5036931;28;20025;-26
2023/07/28 00:20:44;;;;;;;4.72;1.70;;;;;;;;;;5036915;28;20049;-25
2023/07/28 00:23:10;;;;;;;5.30;1.70;;;;;;;;;;5036832;28;20104;-23
2023/07/28 00:25:36;;;;;;;4.88;2.17;;;;;;;;;;5037379;28;20535;-25
2023/07/28 00:28:03;;;;;;;2.95;1.33;;;;;;;;;;5036839;28;20033;-24
2023/07/28 00:30:31;;;;;;;3.97;1.77;;;;;;;;;;5036746;28;20026;-23
2023/07/28 00:32:57;;;;;;;4.97;1.52;;;;;;;;;;5036951;28;20028;-24
2023/07/28 00:35:23;;;;;;;3.95;1.60;;;;;;;;;;5035712;28;20025;-24
2023/07/28 00:37:49;;;;;;;6.63;1.33;;;;;;;;;;5036576;28;20038;-22
2023/07/28 00:40:15;;;;;;;3.15;1.70;;;;;;;;;;5036582;28;20029;-24
2023/07/28 00:42:41;;;;;;;4.47;1.58;;;;;;;;;;5036832;28;20040;-23
2023/07/28 00:45:08;;;;;;;4.43;1.92;;;;;;;;;;5036512;28;20025;-26
2023/07/28 00:47:34;;;;;;;2.88;1.42;;;;;;;;;;5036461;28;20035;-24
2023/07/28 00:50:00;;;;;;;5.65;1.70;;;;;;;;;;5036653;28;20030;-26
2023/07/28 00:52:26;;;;;;;3.05;1.50;;;;;;;;;;5036311;28;20113;-25
2023/07/28 00:54:52;;;;;;;2.85;1.55;;;;;;;;;;5036583;28;20026;-24
2023/07/28 00:57:19;;;;;;;4.90;2.15;;;;;;;;;;5036217;28;20025;-23
2023/07/28 00:59:45;;;;;;;7.22;1.77;;;;;;;;;;5036254;28;20021;-25
2023/07/28 01:02:12;;;;;;;4.10;1.90;;;;;;;;;;5036169;28;20041;-23
2023/07/28 01:04:38;;;;;;;2.90;1.40;;;;;;;;;;5036140;28;20072;-27
2023/07/28 01:07:14;;;;;;;7.80;1.70;;;;;;;;;;5036856;28;20037;-26
2023/07/28 01:09:45;;;;;;;6.10;1.42;;;;;;;;;;5036315;28;20026;-26
2023/07/28 01:12:12;;;;;;;4.90;1.52;;;;;;;;;;5036240;28;20029;-25
2023/07/28 01:14:38;;;;;;;5.15;2.00;;;;;;;;;;5035933;28;20064;-24
2023/07/28 01:17:04;;;;;;;4.90;1.38;;;;;;;;;;5036096;28;20037;-26
2023/07/28 01:19:30;;;;;;;3.60;1.45;;;;;;;;;;5035867;28;20033;-26
2023/07/28 01:22:05;;;;;;;3.08;1.98;;;;;;;;;;5035704;28;20483;-25
2023/07/28 01:24:46;;;;;;;1.55;1.23;;;;;;;;;;5036004;28;20027;-25
2023/07/28 01:27:12;;;;;;;4.05;1.70;;;;;;;;;;5036002;28;20039;-24
2023/07/28 01:29:39;;;;;;;2.35;1.33;;;;;;;;;;5035923;28;20090;-23
2023/07/28 01:32:05;;;;;;;4.68;1.80;;;;;;;;;;5035758;28;20029;-26
2023/07/28 01:34:31;;;;;;;2.55;1.50;;;;;;;;;;5035576;28;20360;-24
2023/07/28 01:36:57;;;;;;;2.55;1.42;;;;;;;;;;5035435;28;20030;-27
2023/07/28 01:39:23;;;;;;;6.72;1.67;;;;;;;;;;5035742;28;20040;-27
2023/07/28 01:41:49;;;;;;;2.65;1.63;;;;;;;;;;5035369;28;20467;-26
2023/07/28 01:44:15;;;;;;;7.35;1.80;;;;;;;;;;5035656;28;20037;-24
2023/07/28 01:46:42;;;;;;;2.72;1.35;;;;;;;;;;5034971;28;20017;-24
2023/07/28 01:49:08;;;;;;;7.70;3.15;;;;;;;;;;5035558;28;20043;-27
2023/07/28 01:51:34;;;;;;;4.85;1.48;;;;;;;;;;5035520;28;20025;-26
2023/07/28 01:54:00;;;;;;;4.07;1.80;;;;;;;;;;5035383;28;20104;-27
2023/07/28 01:56:26;;;;;;;10.80;2.95;;;;;;;;;;5035405;28;20025;-26
2023/07/28 01:58:52;;;;;;;2.03;1.40;;;;;;;;;;5035052;28;20381;-23
2023/07/28 02:01:18;;;;;;;2.80;2.42;;;;;;;;;;5035101;28;20026;-24
2023/07/28 02:03:44;;;;;;;2.13;1.27;;;;;;;;;;5034817;28;20084;-25
2023/07/28 02:06:10;;;;;;;4.45;1.55;;;;;;;;;;5035277;28;20028;-26
2023/07/28 02:08:36;;;;;;;2.13;1.10;;;;;;;;;;5034990;28;20065;-27
2023/07/28 02:11:02;;;;;;;3.65;1.27;;;;;;;;;;5035188;28;20384;-23
2023/07/28 02:13:29;;;;;;;2.55;1.77;;;;;;;;;;5034911;28;20026;-25
2023/07/28 02:15:55;;;;;;;5.03;2.30;;;;;;;;;;5035112;28;20040;-23
2023/07/28 02:18:21;;;;;;;2.20;1.27;;;;;;;;;;5035058;28;20029;-23
2023/07/28 02:20:50;;;;;;;4.07;1.50;;;;;;;;;;5035079;28;20022;-25
2023/07/28 02:23:16;;;;;;;2.47;1.70;;;;;;;;;;5034704;28;20054;-26
2023/07/28 02:25:43;;;;;;;2.53;1.48;;;;;;;;;;5035005;28;20025;-26
2023/07/28 02:28:11;;;;;;;3.67;1.42;;;;;;;;;;5035262;28;20037;-23
2023/07/28 02:30:38;;;;;;;2.28;1.20;;;;;;;;;;5034928;28;20025;-26
2023/07/28 02:33:04;;;;;;;4.47;1.80;;;;;;;;;;5034598;28;20051;-24
2023/07/28 02:35:31;;;;;;;4.20;1.88;;;;;;;;;;5034943;28;20095;-25
2023/07/28 02:37:58;;;;;;;3.78;1.63;;;;;;;;;;5034498;28;20029;-26
2023/07/28 02:40:24;;;;;;;2.22;1.65;;;;;;;;;;5034669;28;20411;-24
2023/07/28 02:42:50;;;;;;;2.15;1.30;;;;;;;;;;5034507;28;20449;-24
2023/07/28 02:45:16;;;;;;;1.38;1.25;;;;;;;;;;5034811;28;20083;-24
2023/07/28 02:47:42;;;;;;;1.50;1.30;;;;;;;;;;5034840;28;20441;-26
2023/07/28 02:50:08;;;;;;;4.28;1.30;;;;;;;;;;5034777;28;20047;-26
2023/07/28 02:52:35;;;;;;;1.30;1.20;;;;;;;;;;5034769;28;20356;-26
2023/07/28 02:55:01;;;;;;;4.15;2.13;;;;;;;;;;5034464;28;20026;-25
2023/07/28 02:57:27;;;;;;;2.30;1.15;;;;;;;;;;5034369;28;20402;-24
2023/07/28 02:59:53;;;;;;;4.95;1.10;;;;;;;;;;5037882;28;20029;-22
2023/07/28 03:02:19;;;;;;;2.95;1.20;;;;;;;;;;5038188;28;20043;-24
2023/07/28 03:04:45;;;;;;;2.65;1.30;;;;;;;;;;5038713;28;20036;-24
2023/07/28 03:07:11;;;;;;;3.35;1.30;;;;;;;;;;5038372;28;20341;-27
2023/07/28 03:09:37;;;;;;;3.65;1.63;;;;;;;;;;5038272;28;20354;-24
2023/07/28 03:12:05;;;;;;;2.60;1.40;;;;;;;;;;5038450;28;20040;-26
2023/07/28 03:14:32;;;;;;;3.47;2.53;;;;;;;;;;5038495;28;20022;-26
2023/07/28 03:16:59;;;;;;;1.30;1.20;;;;;;;;;;5037931;28;20049;-25
2023/07/28 03:19:25;;;;;;;4.18;1.30;;;;;;;;;;5038107;28;20097;-27
2023/07/28 03:21:51;;;;;;;1.95;1.33;;;;;;;;;;5038260;28;20405;-23
2023/07/28 03:24:17;;;;;;;1.25;1.00;;;;;;;;;;5038036;28;20104;-26
2023/07/28 03:26:43;;;;;;;1.50;1.40;;;;;;;;;;5037966;28;20061;-25
2023/07/28 03:29:09;;;;;;;5.00;2.20;;;;;;;;;;5037926;28;20022;-23
2023/07/28 03:31:36;;;;;;;2.42;1.33;;;;;;;;;;5037887;28;20064;-25
2023/07/28 03:34:02;;;;;;;2.83;1.80;;;;;;;;;;5037809;28;20025;-23
2023/07/28 03:36:28;;;;;;;2.78;1.42;;;;;;;;;;5037810;28;20104;-27
2023/07/28 03:38:55;;;;;;;2.38;1.27;;;;;;;;;;5037963;28;20030;-26
2023/07/28 03:41:21;;;;;;;1.70;1.33;;;;;;;;;;5037720;28;20018;-24
2023/07/28 03:43:47;;;;;;;1.13;1.02;;;;;;;;;;5037687;28;20026;-26
2023/07/28 03:46:13;;;;;;;0.90;0.90;;;;;;;;;;5037598;28;20025;-24
2023/07/28 03:48:39;;;;;;;4.47;1.52;;;;;;;;;;5037833;28;20025;-23
2023/07/28 03:51:05;;;;;;;3.28;2.17;;;;;;;;;;5038025;28;20508;-23
2023/07/28 03:53:34;;;;;;;2.67;1.50;;;;;;;;;;5037652;28;20356;-26
2023/07/28 03:56:00;;;;;;;1.30;1.20;;;;;;;;;;5037358;28;20448;-24
2023/07/28 03:58:27;;;;;;;2.20;1.30;;;;;;;;;;5037271;28;20029;-25
2023/07/28 04:00:53;;;;;;;2.78;1.00;;;;;;;;;;5037292;28;20461;-24
2023/07/28 04:03:19;;;;;;;2.78;1.00;;;;;;;;;;5037002;28;20045;-26
2023/07/28 04:05:46;;;;;;;4.28;1.30;;;;;;;;;;5037430;28;20021;-27
2023/07/28 04:08:12;;;;;;;2.00;1.20;;;;;;;;;;5037446;28;20034;-27
2023/07/28 04:10:38;;;;;;;2.33;1.13;;;;;;;;;;5036816;28;20484;-24
2023/07/28 04:13:04;;;;;;;1.83;1.25;;;;;;;;;;5037187;28;20029;-27
2023/07/28 04:15:30;;;;;;;1.40;0.98;;;;;;;;;;5037512;28;20044;-23
2023/07/28 04:17:56;;;;;;;2.35;1.25;;;;;;;;;;5036753;28;20041;-24
2023/07/28 04:20:22;;;;;;;0.90;0.90;;;;;;;;;;5037213;28;20470;-24
2023/07/28 04:22:49;;;;;;;4.30;1.58;;;;;;;;;;5036679;28;20467;-27
2023/07/28 04:25:15;;;;;;;1.65;1.10;;;;;;;;;;5037055;28;20026;-28
2023/07/28 04:27:41;;;;;;;1.35;1.23;;;;;;;;;;5036720;28;20033;-27
2023/07/28 04:30:07;;;;;;;1.48;1.05;;;;;;;;;;5036613;28;20048;-27
2023/07/28 04:32:33;;;;;;;2.10;1.08;;;;;;;;;;5036401;28;20170;-24
2023/07/28 04:34:59;;;;;;;1.50;1.20;;;;;;;;;;5036967;28;20042;-23
2023/07/28 04:37:25;;;;;;;3.35;1.30;;;;;;;;;;5036411;28;20440;-24
2023/07/28 04:39:51;;;;;;;1.83;1.10;;;;;;;;;;5036415;28;20079;-25
2023/07/28 04:42:17;;;;;;;4.88;1.58;;;;;;;;;;5036336;28;20022;-24
2023/07/28 04:44:45;;;;;;;2.67;1.70;;;;;;;;;;5036624;28;20022;-26
2023/07/28 04:47:11;;;;;;;3.60;1.50;;;;;;;;;;5036200;28;20041;-29
2023/07/28 04:49:37;;;;;;;2.60;1.17;;;;;;;;;;5036212;28;20100;-26
2023/07/28 04:52:04;;;;;;;2.60;1.27;;;;;;;;;;5035982;28;20385;-25
2023/07/28 04:54:30;;;;;;;3.42;1.70;;;;;;;;;;5036141;28;20021;-27
2023/07/28 04:56:56;;;;;;;2.03;1.40;;;;;;;;;;5036004;28;20072;-25
2023/07/28 04:59:22;;;;;;;3.72;1.30;;;;;;;;;;5036271;28;20341;-24
2023/07/28 05:01:48;;;;;;;2.80;1.38;;;;;;;;;;5035774;28;20460;-26
2023/07/28 05:04:14;;;;;;;4.35;1.13;;;;;;;;;;5035619;28;20041;-26
2023/07/28 05:06:40;;;;;;;1.25;1.15;;;;;;;;;;5036778;28;20333;-26
2023/07/28 05:09:06;;;;;;;2.55;0.98;;;;;;;;;;5035815;28;20029;-26
2023/07/28 05:11:32;;;;;;;3.80;1.05;;;;;;;;;;5035664;28;20026;-26
2023/07/28 05:13:58;;;;;;;2.25;1.13;;;;;;;;;;5035704;28;20020;-26
2023/07/28 05:16:25;;;;;;;6.32;1.27;;;;;;;;;;5035629;28;20064;-24
2023/07/28 05:18:51;;;;;;;1.77;1.20;;;;;;;;;;5035768;28;20036;-27
2023/07/28 05:21:17;;;;;;;3.67;1.08;;;;;;;;;;5034917;28;20021;-23
2023/07/28 05:23:43;;;;;;;1.60;1.10;;;;;;;;;;5035815;28;20326;-26
2023/07/28 05:26:09;;;;;;;2.20;1.20;;;;;;;;;;5035635;28;20389;-25
2023/07/28 05:28:35;;;;;;;4.60;1.33;;;;;;;;;;5035454;28;20021;-26
2023/07/28 05:31:05;;;;;;;4.45;1.30;;;;;;;;;;5035414;28;20457;-24
2023/07/28 05:33:31;;;;;;;2.50;1.25;;;;;;;;;;5035400;28;20366;-23
2023/07/28 05:36:01;;;;;;;2.50;1.30;;;;;;;;;;5017970;28;20595;-24
2023/07/28 05:38:27;;;;;;;6.15;1.50;;;;;;;;;;5035321;28;20035;-26
2023/07/28 05:40:57;;;;;;;5.45;1.60;;;;;;;;;;5035651;28;20029;-25
2023/07/28 05:43:23;;;;;;;5.32;1.38;;;;;;;;;;5035236;28;20032;-25
2023/07/28 05:45:49;;;;;;;2.88;1.33;;;;;;;;;;5035306;28;20432;-24
2023/07/28 05:48:15;;;;;;;1.42;0.90;;;;;;;;;;5035513;28;20022;-26
2023/07/28 05:50:42;;;;;;;3.90;1.40;;;;;;;;;;5035407;28;20032;-26
2023/07/28 05:53:08;;;;;;;6.07;1.48;;;;;;;;;;5035033;28;20504;-26
2023/07/28 05:55:34;;;;;;;7.78;1.40;;;;;;;;;;5035393;28;20025;-26
2023/07/28 05:58:00;;;;;;;1.70;1.10;;;;;;;;;;5035204;28;20029;-26
2023/07/28 06:00:26;;;;;;;1.73;1.25;;;;;;;;;;5035033;28;20329;-27
2023/07/28 06:02:53;;;;;;;2.42;1.83;;;;;;;;;;5034677;28;20510;-24
2023/07/28 06:05:19;;;;;;;4.70;2.08;;;;;;;;;;5034847;28;20022;-23
2023/07/28 06:07:45;;;;;;;8.32;2.10;;;;;;;;;;5035188;28;20363;-24
2023/07/28 06:10:11;;;;;;;1.55;1.23;;;;;;;;;;5035208;28;20103;-25
2023/07/28 06:12:38;;;;;;;4.07;1.50;;;;;;;;;;5034704;28;20039;-25
2023/07/28 06:15:04;;;;;;;2.75;1.40;;;;;;;;;;5035031;28;20399;-25
2023/07/28 06:17:30;;;;;;;3.38;1.70;;;;;;;;;;5034686;28;20113;-27
2023/07/28 06:19:57;;;;;;;1.75;1.52;;;;;;;;;;5034798;28;20376;-26
2023/07/28 06:22:23;;;;;;;5.63;1.60;;;;;;;;;;5034659;28;20083;-26
2023/07/28 06:24:49;;;;;;;2.33;1.50;;;;;;;;;;5035340;28;20053;-25
2023/07/28 06:27:15;;;;;;;2.72;1.80;;;;;;;;;;5034603;28;20026;-23
2023/07/28 06:29:41;;;;;;;4.65;2.03;;;;;;;;;;5034616;28;20025;-25
2023/07/28 06:32:07;;;;;;;2.22;1.38;;;;;;;;;;5034753;28;20444;-26
2023/07/28 06:34:34;;;;;;;3.17;1.90;;;;;;;;;;5034487;28;20048;-26
2023/07/28 06:37:00;;;;;;;4.07;1.48;;;;;;;;;;5034388;28;20037;-27
2023/07/28 06:39:26;;;;;;;2.65;1.58;;;;;;;;;;5034696;28;20028;-26
2023/07/28 06:41:52;;;;;;;2.63;1.42;;;;;;;;;;5034356;28;20083;-25
2023/07/28 06:44:19;;;;;;;3.45;1.67;;;;;;;;;;5034678;28;20022;-25
2023/07/28 06:46:45;;;;;;;3.58;1.90;;;;;;;;;;5034682;28;20029;-23
2023/07/28 06:49:11;;;;;;;4.82;1.77;;;;;;;;;;5034636;28;20021;-24
2023/07/28 06:51:37;;;;;;;6.03;1.70;;;;;;;;;;5034391;28;20025;-25
2023/07/28 06:54:03;;;;;;;2.72;1.70;;;;;;;;;;5034236;28;20021;-26
2023/07/28 06:56:29;;;;;;;4.22;2.60;;;;;;;;;;5034214;28;20056;-26
2023/07/28 06:58:55;;;;;;;5.00;1.95;;;;;;;;;;5034395;28;20022;-26
2023/07/28 07:01:22;;;;;;;4.15;2.05;;;;;;;;;;5034757;28;20078;-24
2023/07/28 07:03:48;;;;;;;4.47;2.15;;;;;;;;;;5033906;28;20091;-23
2023/07/28 07:06:14;;;;;;;6.38;2.58;;;;;;;;;;5034158;28;20036;-24
2023/07/28 07:08:40;;;;;;;4.28;1.92;;;;;;;;;;5034145;28;20026;-24
2023/07/28 07:11:06;;;;;;;3.83;1.80;;;;;;;;;;5034120;28;20025;-26
2023/07/28 07:13:32;;;;;;;5.55;1.90;;;;;;;;;;5034066;28;20108;-25
2023/07/28 07:15:58;;;;;;;6.88;2.25;;;;;;;;;;5034309;28;20025;-27
2023/07/28 07:18:25;;;;;;;3.03;1.60;;;;;;;;;;5034914;28;20324;-27
2023/07/28 07:20:51;;;;;;;3.17;1.15;;;;;;;;;;5034114;28;20033;-26
2023/07/28 07:23:17;;;;;;;5.97;2.38;;;;;;;;;;5033863;28;20088;-24
2023/07/28 07:25:43;;;;;;;2.47;1.80;;;;;;;;;;5034378;28;20481;-24
2023/07/28 07:28:09;;;;;;;3.15;2.05;;;;;;;;;;5033856;28;20105;-22
2023/07/28 07:30:35;;;;;;;5.97;1.80;;;;;;;;;;5033745;28;20030;-24
2023/07/28 07:33:01;;;;;;;4.07;1.73;;;;;;;;;;5033834;28;20030;-24
2023/07/28 07:35:27;;;;;;;7.57;2.65;;;;;;;;;;5034131;28;20029;-24
2023/07/28 07:37:53;;;;;;;5.32;1.88;;;;;;;;;;5033881;28;20025;-25
2023/07/28 07:40:20;;;;;;;5.07;2.10;;;;;;;;;;5033941;28;20025;-23
2023/07/28 07:42:47;;;;;;;5.40;1.65;;;;;;;;;;5033779;28;20096;-25
2023/07/28 07:45:14;;;;;;;3.00;2.22;;;;;;;;;;5027893;28;20028;-25
2023/07/28 07:47:41;;;;;;;3.42;1.50;;;;;;;;;;5037356;28;20026;-25
2023/07/28 07:50:08;;;;;;;2.70;2.38;;;;;;;;;;5037400;28;20361;-24
2023/07/28 07:52:35;;;;;;;2.00;1.77;;;;;;;;;;5037205;28;20395;-27
2023/07/28 07:55:02;;;;;;;3.03;2.13;;;;;;;;;;5037267;28;20079;-26
2023/07/28 07:57:28;;;;;;;2.90;1.33;;;;;;;;;;5037118;28;20057;-25
2023/07/28 07:59:55;;;;;;;3.13;2.22;;;;;;;;;;5037569;28;20100;-25
2023/07/28 08:02:21;;;;;;;4.38;1.48;;;;;;;;;;5037226;28;20475;-26
2023/07/28 08:04:47;;;;;;;5.90;1.75;;;;;;;;;;5037193;28;20029;-25
2023/07/28 08:07:15;;;;;;;3.50;1.90;;;;;;;;;;5037090;28;20108;-26
2023/07/28 08:09:41;;;;;;;3.95;1.70;;;;;;;;;;5037340;28;20101;-26
2023/07/28 08:12:08;;;;;;;4.28;1.67;;;;;;;;;;5037210;28;20036;-24
2023/07/28 08:14:34;;;;;;;2.80;1.85;;;;;;;;;;5036973;28;20156;-24
2023/07/28 08:17:00;;;;;;;5.95;1.70;;;;;;;;;;5019348;28;20445;-23
2023/07/28 08:19:26;;;;;;;4.60;1.77;;;;;;;;;;5036964;28;20017;-27
2023/07/28 08:21:53;;;;;;;2.67;2.15;;;;;;;;;;5036636;28;20059;-27
2023/07/28 08:24:20;;;;;;;1.58;1.48;;;;;;;;;;5036671;28;20500;-25
2023/07/28 08:26:46;;;;;;;3.25;1.70;;;;;;;;;;5036640;28;20025;-26
2023/07/28 08:29:12;;;;;;;4.78;1.50;;;;;;;;;;5036597;28;20033;-27
2023/07/28 08:31:38;;;;;;;6.05;1.67;;;;;;;;;;5036850;28;20334;-24
2023/07/28 08:34:04;;;;;;;4.70;2.15;;;;;;;;;;5036410;28;20028;-24
2023/07/28 08:36:30;;;;;;;2.55;1.67;;;;;;;;;;5018876;28;20028;-24
2023/07/28 08:38:56;;;;;;;4.70;2.35;;;;;;;;;;5036459;28;20102;-26
2023/07/28 08:41:23;;;;;;;2.78;1.50;;;;;;;;;;5036707;28;20025;-24
2023/07/28 08:43:50;;;;;;;3.78;2.03;;;;;;;;;;5036343;28;20064;-27
2023/07/28 08:46:17;;;;;;;4.60;1.65;;;;;;;;;;5036683;28;20026;-27
2023/07/28 08:48:44;;;;;;;3.85;2.45;;;;;;;;;;5036246;28;20033;-25
2023/07/28 08:51:11;;;;;;;4.38;1.92;;;;;;;;;;5036630;28;20022;-25
2023/07/28 08:53:38;;;;;;;8.32;2.50;;;;;;;;;;5036364;28;20025;-22
2023/07/28 08:56:04;;;;;;;2.78;1.55;;;;;;;;;;5035140;28;20104;-27
2023/07/28 08:58:30;;;;;;;1.60;1.20;;;;;;;;;;5036134;28;20033;-27
2023/07/28 09:01:00;;;;;;;2.38;1.50;;;;;;;;;;5035914;28;20017;-24
2023/07/28 09:03:27;;;;;;;5.53;1.50;;;;;;;;;;5018290;28;20452;-23
2023/07/28 09:05:59;;;;;;;2.75;1.95;;;;;;;;;;5036211;28;20364;-26
2023/07/28 09:08:25;;;;;;;9.95;1.95;;;;;;;;;;5035896;28;20037;-25
2023/07/28 09:10:51;;;;;;;3.60;1.73;;;;;;;;;;5036187;28;20533;-25
2023/07/28 09:13:18;;;;;;;5.25;1.60;;;;;;;;;;5035732;28;20056;-25
2023/07/28 09:15:44;;;;;;;6.57;2.00;;;;;;;;;;5035799;28;20116;-25
2023/07/28 09:18:12;;;;;;;1.85;1.55;;;;;;;;;;5035676;28;20125;-24
2023/07/28 09:20:39;;;;;;;6.15;1.83;;;;;;;;;;5035692;28;20021;-26
2023/07/28 09:23:07;;;;;;;4.10;1.48;;;;;;;;;;5035583;28;20025;-24
2023/07/28 09:25:34;;;;;;;1.88;1.65;;;;;;;;;;5035867;28;20033;-25
2023/07/28 09:28:00;;;;;;;5.93;1.85;;;;;;;;;;5035524;28;20040;-26
2023/07/28 09:30:26;;;;;;;3.80;1.83;;;;;;;;;;5035761;28;20029;-24
2023/07/28 09:32:53;;;;;;;6.43;2.40;;;;;;;;;;5035438;28;20529;-24
2023/07/28 09:35:21;;;;;;;2.28;1.70;;;;;;;;;;5035470;28;20029;-25
2023/07/28 09:37:48;;;;;;;6.35;1.80;;;;;;;;;;5035168;28;20025;-26
2023/07/28 09:40:16;;;;;;;3.83;1.60;;;;;;;;;;5035488;28;20036;-26
2023/07/28 09:42:50;;;;;;;4.50;1.70;;;;;;;;;;5035163;28;20029;-28
2023/07/28 09:45:17;;;;;;;2.45;1.50;;;;;;;;;;5035205;28;20025;-26
2023/07/28 09:47:46;;;;;;;3.45;1.80;;;;;;;;;;5035105;28;20033;-23
2023/07/28 09:50:15;;;;;;;3.50;1.83;;;;;;;;;;5035379;28;20393;-26
2023/07/28 09:52:46;;;;;;;5.28;1.80;;;;;;;;;;5035023;28;20029;-28
2023/07/28 09:55:15;;;;;;;2.67;1.83;;;;;;;;;;5035367;28;20049;-28
2023/07/28 09:57:44;;;;;;;2.30;2.00;;;;;;;;;;5035197;28;20087;-23
2023/07/28 10:00:11;;;;;;;2.10;1.35;;;;;;;;;;5035014;28;20025;-26
2023/07/28 10:02:38;;;;;;;3.58;1.70;;;;;;;;;;5037439;28;20136;-26
2023/07/28 10:05:05;;;;;;;2.53;1.70;;;;;;;;;;5054743;28;20036;-25
2023/07/28 10:07:31;;;;;;;2.70;1.92;;;;;;;;;;5054855;28;20029;-24
2023/07/28 10:09:58;;;;;;;11.85;2.85;;;;;;;;;;5054684;28;20025;-25
2023/07/28 10:12:25;;;;;;;8.07;2.30;;;;;;;;;;5054569;28;20108;-27
2023/07/28 10:15:02;;;;;;;4.50;1.83;;;;;;;;;;5054377;28;20032;-25
2023/07/28 10:17:32;;;;;;;9.07;2.22;;;;;;;;;;5054154;28;20025;-26
2023/07/28 10:19:58;;;;;;;5.38;1.73;;;;;;;;;;5054262;28;20052;-25
2023/07/28 10:22:27;;;;;;;6.07;1.63;;;;;;;;;;5054407;28;20440;-25
2023/07/28 10:25:02;;;;;;;5.97;2.47;;;;;;;;;;5054446;28;20380;-27
2023/07/28 10:27:34;;;;;;;6.80;1.48;;;;;;;;;;5054245;28;20028;-25
2023/07/28 10:30:01;;;;;;;5.70;2.88;;;;;;;;;;5036700;28;20033;-25
2023/07/28 10:32:30;;;;;;;6.05;1.90;;;;;;;;;;5054545;28;20079;-27
2023/07/28 10:35:00;;;;;;;4.68;1.90;;;;;;;;;;5054263;28;20102;-24
2023/07/28 10:37:26;;;;;;;5.30;2.20;;;;;;;;;;5054415;28;20111;-27
2023/07/28 10:40:12;;;;;;;1.90;1.50;;;;;;;;;;5054369;28;20356;-26
2023/07/28 10:42:38;;;;;;;7.13;2.00;;;;;;;;;;5054499;28;20096;-24
2023/07/28 10:45:05;;;;;;;6.40;2.38;;;;;;;;;;5054056;28;20029;-25
2023/07/28 10:47:31;;;;;;;9.35;1.83;;;;;;;;;;5054158;28;20109;-25
2023/07/28 10:49:57;;;;;;;10.57;2.97;;;;;;;;;;5054185;28;20451;-26
2023/07/28 10:52:24;;;;;;;4.13;1.90;;;;;;;;;;5054104;28;20025;-25
2023/07/28 10:54:50;;;;;;;5.00;1.80;;;;;;;;;;5054356;28;20159;-26
2023/07/28 10:57:16;;;;;;;4.28;2.08;;;;;;;;;;5054115;28;20033;-26
2023/07/28 10:59:43;;;;;;;5.72;1.70;;;;;;;;;;5054095;28;20025;-26
2023/07/28 11:02:15;;;;;;;8.23;1.77;;;;;;;;;;5054000;28;20028;-25
2023/07/28 11:04:47;;;;;;;4.32;1.90;;;;;;;;;;5053838;28;20065;-26
2023/07/28 11:07:13;;;;;;;4.95;1.90;;;;;;;;;;5054309;28;20380;-25
2023/07/28 11:09:39;;;;;;;3.53;1.65;;;;;;;;;;5054273;28;20025;-24
2023/07/28 11:12:10;;;;;;;5.57;1.70;;;;;;;;;;5054616;28;20104;-24
2023/07/28 11:14:36;;;;;;;6.53;1.80;;;;;;;;;;5054280;28;20029;-24
2023/07/28 11:17:02;;;;;;;8.98;2.00;;;;;;;;;;5054127;28;20053;-27
2023/07/28 11:19:28;;;;;;;8.85;1.98;;;;;;;;;;5055312;28;20036;-26
2023/07/28 11:21:55;;;;;;;8.05;1.80;;;;;;;;;;5057788;28;20083;-26
2023/07/28 11:24:22;;;;;;;3.10;1.75;;;;;;;;;;5058050;28;20031;-25
2023/07/28 11:26:48;;;;;;;5.63;1.48;;;;;;;;;;5057731;28;20013;-26
2023/07/28 11:29:14;;;;;;;4.22;2.05;;;;;;;;;;5049536;28;20032;-25
2023/07/28 11:31:42;;;;;;;7.97;2.83;;;;;;;;;;5057558;28;20040;-25
2023/07/28 11:34:18;;;;;;;4.53;1.67;;;;;;;;;;5057560;28;20024;-27
2023/07/28 11:36:44;;;;;;;4.57;1.90;;;;;;;;;;5058058;28;20078;-27
2023/07/28 11:39:10;;;;;;;5.28;2.22;;;;;;;;;;5057698;28;20056;-24
2023/07/28 11:41:37;;;;;;;5.63;2.35;;;;;;;;;;5057773;28;20021;-24
2023/07/28 11:44:04;;;;;;;5.38;2.00;;;;;;;;;;5057389;28;20025;-22
2023/07/28 11:46:38;;;;;;;6.38;1.80;;;;;;;;;;5057545;28;20023;-23
2023/07/28 11:49:10;;;;;;;11.88;1.92;;;;;;;;;;5057356;28;20167;-26
2023/07/28 11:51:38;;;;;;;8.02;2.38;;;;;;;;;;5058081;28;20043;-25
2023/07/28 11:54:04;;;;;;;4.85;2.60;;;;;;;;;;5057210;28;20040;-27
2023/07/28 11:56:31;;;;;;;3.55;1.80;;;;;;;;;;5057260;28;20025;-26
2023/07/28 11:58:57;;;;;;;3.38;2.33;;;;;;;;;;5057091;28;20055;-26
2023/07/28 12:01:23;;;;;;;2.97;1.55;;;;;;;;;;5057045;28;20025;-26
2023/07/28 12:03:49;;;;;;;8.48;1.88;;;;;;;;;;5056829;28;20040;-26
2023/07/28 12:06:15;;;;;;;3.75;1.73;;;;;;;;;;5057273;28;20031;-26
2023/07/28 12:08:42;;;;;;;5.80;1.83;;;;;;;;;;5056986;28;20101;-24
2023/07/28 12:11:13;;;;;;;7.88;1.98;;;;;;;;;;5056952;28;20128;-25
2023/07/28 12:13:49;;;;;;;5.13;1.60;;;;;;;;;;5056732;28;20083;-25
2023/07/28 12:16:34;;;;;;;9.90;2.08;;;;;;;;;;5057221;28;20025;-25
2023/07/28 12:19:00;;;;;;;4.88;1.90;;;;;;;;;;5056993;28;20035;-27
2023/07/28 12:21:26;;;;;;;4.55;1.67;;;;;;;;;;5057001;28;20378;-25
2023/07/28 12:23:52;;;;;;;5.97;1.98;;;;;;;;;;5038874;28;20155;-23
2023/07/28 12:26:19;;;;;;;5.00;1.95;;;;;;;;;;5056899;28;20024;-25
2023/07/28 12:28:45;;;;;;;2.55;1.58;;;;;;;;;;5057333;28;20043;-25
2023/07/28 12:31:12;;;;;;;4.15;2.00;;;;;;;;;;5056690;28;20052;-26
2023/07/28 12:33:38;;;;;;;7.22;2.38;;;;;;;;;;5056494;28;20032;-24
2023/07/28 12:36:06;;;;;;;3.63;1.80;;;;;;;;;;5038744;28;20104;-23
2023/07/28 12:38:32;;;;;;;4.55;2.08;;;;;;;;;;5056357;28;20029;-25
2023/07/28 12:40:58;;;;;;;4.65;1.70;;;;;;;;;;5056625;28;20021;-24
2023/07/28 12:43:25;;;;;;;5.22;2.20;;;;;;;;;;5056266;28;20021;-24
2023/07/28 12:45:53;;;;;;;2.80;1.63;;;;;;;;;;5056200;28;20090;-27
2023/07/28 12:48:19;;;;;;;2.70;2.00;;;;;;;;;;5056986;28;20025;-26
2023/07/28 12:50:46;;;;;;;5.13;1.98;;;;;;;;;;5056231;28;20029;-26
2023/07/28 12:53:12;;;;;;;3.22;1.95;;;;;;;;;;5056387;28;20033;-25
2023/07/28 12:55:38;;;;;;;8.18;2.60;;;;;;;;;;5056627;28;20056;-23
2023/07/28 12:58:04;;;;;;;6.68;1.70;;;;;;;;;;5055970;28;20111;-24
2023/07/28 13:00:30;;;;;;;8.48;2.08;;;;;;;;;;5055972;28;20078;-25
2023/07/28 13:02:56;;;;;;;4.88;1.83;;;;;;;;;;5056389;28;20048;-28
2023/07/28 13:05:22;;;;;;;4.60;2.80;;;;;;;;;;5055977;28;20025;-27
2023/07/28 13:07:49;;;;;;;9.52;1.92;;;;;;;;;;5055807;28;20033;-26
2023/07/28 13:10:15;;;;;;;4.53;1.48;;;;;;;;;;5055998;28;20028;-26
2023/07/28 13:12:41;;;;;;;4.20;1.70;;;;;;;;;;5055696;28;20020;-25
2023/07/28 13:15:07;;;;;;;4.10;2.30;;;;;;;;;;5056034;28;20100;-23
2023/07/28 13:17:33;;;;;;;4.55;2.25;;;;;;;;;;5055867;28;20041;-24
2023/07/28 13:20:00;;;;;;;9.95;2.25;;;;;;;;;;5056381;28;20021;-26
2023/07/28 13:22:27;;;;;;;5.13;1.90;;;;;;;;;;5055678;28;20025;-26
2023/07/28 13:24:54;;;;;;;5.32;1.88;;;;;;;;;;5055765;28;20387;-25
2023/07/28 13:27:20;;;;;;;5.15;1.77;;;;;;;;;;5055517;28;20037;-25
2023/07/28 13:29:46;;;;;;;3.58;1.55;;;;;;;;;;5055553;28;20028;-26
2023/07/28 13:32:23;;;;;;;11.02;2.05;;;;;;;;;;5055426;28;20232;-27
2023/07/28 13:34:49;;;;;;;6.28;1.52;;;;;;;;;;5055447;28;20068;-27
2023/07/28 13:37:15;;;;;;;4.43;1.60;;;;;;;;;;5055260;28;20060;-24
2023/07/28 13:39:43;;;;;;;6.50;2.20;;;;;;;;;;5055397;28;20095;-23
2023/07/28 13:42:09;;;;;;;11.05;2.33;;;;;;;;;;5054673;28;20032;-25
2023/07/28 13:44:35;;;;;;;2.05;1.67;;;;;;;;;;5055286;28;20355;-25
2023/07/28 13:47:01;;;;;;;11.05;2.10;;;;;;;;;;5055231;28;20021;-23
2023/07/28 13:49:27;;;;;;;2.70;1.52;;;;;;;;;;5055538;28;20025;-24
2023/07/28 13:51:53;;;;;;;5.57;1.85;;;;;;;;;;5054836;28;20025;-24
2023/07/28 13:54:20;;;;;;;3.53;1.90;;;;;;;;;;5055160;28;20020;-26
2023/07/28 13:56:46;;;;;;;3.65;1.30;;;;;;;;;;5054875;28;20040;-26
2023/07/28 13:59:12;;;;;;;6.05;1.75;;;;;;;;;;5055087;28;20095;-24
2023/07/28 14:01:38;;;;;;;3.97;1.80;;;;;;;;;;5055116;28;20021;-24
2023/07/28 14:04:04;;;;;;;4.75;1.50;;;;;;;;;;5054497;28;20044;-24
2023/07/28 14:06:30;;;;;;;3.08;1.70;;;;;;;;;;5037473;28;20025;-25
2023/07/28 14:08:56;;;;;;;4.25;1.75;;;;;;;;;;5054857;28;20025;-24
2023/07/28 14:11:22;;;;;;;3.20;1.80;;;;;;;;;;5054648;28;20082;-25
2023/07/28 14:13:48;;;;;;;2.03;1.60;;;;;;;;;;5054539;28;20036;-27
2023/07/28 14:16:15;;;;;;;3.22;1.65;;;;;;;;;;5054594;28;20177;-26
2023/07/28 14:18:41;;;;;;;4.05;1.45;;;;;;;;;;5054732;28;20029;-25
2023/07/28 14:21:07;;;;;;;5.03;2.10;;;;;;;;;;5054766;28;20025;-25
2023/07/28 14:23:33;;;;;;;5.93;2.13;;;;;;;;;;5054550;28;20396;-25
2023/07/28 14:25:59;;;;;;;5.13;1.90;;;;;;;;;;5054478;28;20482;-24
2023/07/28 14:28:26;;;;;;;4.80;1.88;;;;;;;;;;5054474;28;20086;-26
2023/07/28 14:30:52;;;;;;;3.35;1.95;;;;;;;;;;5054644;28;20091;-26
2023/07/28 14:33:18;;;;;;;3.08;1.98;;;;;;;;;;5054312;28;20032;-26
2023/07/28 14:35:45;;;;;;;4.82;1.90;;;;;;;;;;5054668;28;20021;-27
2023/07/28 14:38:12;;;;;;;13.43;2.00;;;;;;;;;;5054333;28;20025;-25
2023/07/28 14:40:39;;;;;;;3.35;2.20;;;;;;;;;;5054229;28;20029;-25